createdAt,value
2023-03-25T00:02:01.703Z,99652.72
2023-03-25T00:04:35.212Z,99646.16
2023-03-25T00:07:02.639Z,99651.84
2023-03-25T00:09:31.868Z,99653.50
2023-03-25T00:11:58.793Z,99644.34
2023-03-25T00:14:25.664Z,99647.00
2023-03-25T00:16:53.216Z,99635.63
2023-03-25T00:19:21.247Z,99635.97
2023-03-25T00:21:54.109Z,99628.63
2023-03-25T00:24:20.966Z,99631.22
2023-03-25T00:26:48.664Z,99627.09
2023-03-25T00:29:16.992Z,99629.84
2023-03-25T00:31:44.086Z,99623.59
2023-03-25T00:34:14.846Z,99623.09
2023-03-25T00:36:43.695Z,99614.81
2023-03-25T00:39:13.513Z,99618.84
2023-03-25T00:41:43.491Z,99621.59
2023-03-25T00:44:17.137Z,99618.19
2023-03-25T00:46:47.175Z,99619.81
2023-03-25T00:49:14.113Z,99620.66
2023-03-25T00:51:52.853Z,99618.06
2023-03-25T00:54:22.290Z,99619.47
2023-03-25T00:56:52.856Z,99617.53
2023-03-25T00:59:19.898Z,99624.19
2023-03-25T01:01:46.808Z,99617.09
2023-03-25T01:04:13.753Z,99620.75
2023-03-25T01:06:44.362Z,99617.03
2023-03-25T01:09:15.225Z,99616.91
2023-03-25T01:11:46.874Z,99615.34
2023-03-25T01:14:21.023Z,99612.72
2023-03-25T01:16:48.055Z,99623.66
2023-03-25T01:19:16.313Z,99613.16
2023-03-25T01:21:45.187Z,99620.38
2023-03-25T01:24:14.822Z,99615.47
2023-03-25T01:26:46.109Z,99611.09
2023-03-25T01:29:17.732Z,99603.63
2023-03-25T01:31:47.595Z,99598.97
2023-03-25T01:34:17.382Z,99597.31
2023-03-25T01:36:46.702Z,99605.63
2023-03-25T01:39:18.597Z,99602.59
2023-03-25T01:41:51.085Z,99604.78
2023-03-25T01:44:24.145Z,99605.81
2023-03-25T01:46:56.328Z,99610.66
2023-03-25T01:49:30.171Z,99601.69
2023-03-25T01:52:05.805Z,99595.03
2023-03-25T01:54:42.580Z,99590.34
2023-03-25T01:57:18.432Z,99585.13
2023-03-25T01:59:46.313Z,99592.28
2023-03-25T02:02:17.784Z,99576.91
2023-03-25T02:05:00.137Z,99576.53
2023-03-25T02:07:42.578Z,99583.22
2023-03-25T02:10:12.864Z,99574.91
2023-03-25T02:12:40.972Z,99574.31
2023-03-25T02:15:11.045Z,99577.69
2023-03-25T02:18:02.229Z,99567.09
2023-03-25T02:20:54.320Z,99572.78
2023-03-25T02:23:43.205Z,99564.03
2023-03-25T02:26:50.106Z,99571.06
2023-03-25T02:29:54.032Z,99567.59
2023-03-25T02:33:30.296Z,99567.19
2023-03-25T02:36:41.411Z,99572.16
2023-03-25T02:39:36.031Z,99562.31
2023-03-25T02:42:35.160Z,99558.81
2023-03-25T02:45:49.162Z,99548.00
2023-03-25T02:48:27.753Z,99555.97
2023-03-25T02:51:00.922Z,99556.28
2023-03-25T02:53:34.975Z,99556.69
2023-03-25T02:56:10.973Z,99547.81
2023-03-25T02:58:40.792Z,99546.25
2023-03-25T03:01:10.016Z,99553.28
2023-03-25T03:03:39.249Z,99550.88
2023-03-25T03:06:08.080Z,99541.63
2023-03-25T03:08:54.038Z,99543.94
2023-03-25T03:11:30.618Z,99545.94
2023-03-25T03:14:07.200Z,99563.34
2023-03-25T03:16:42.709Z,99541.78
2023-03-25T03:20:02.071Z,99549.47
2023-03-25T03:22:56.016Z,99551.66
2023-03-25T03:25:47.587Z,99534.41
2023-03-25T03:28:24.735Z,99537.34
2023-03-25T03:31:11.213Z,99534.59
2023-03-25T03:33:57.851Z,99542.19
2023-03-25T03:36:31.244Z,99544.06
2023-03-25T03:39:23.618Z,99535.56
2023-03-25T03:41:59.577Z,99529.16
2023-03-25T03:44:33.406Z,99546.97
2023-03-25T03:47:11.852Z,99538.94
2023-03-25T03:49:43.542Z,99527.63
2023-03-25T03:52:45.197Z,99536.13
2023-03-25T03:55:19.377Z,99533.47
2023-03-25T03:57:53.108Z,99523.50
2023-03-25T04:00:29.592Z,99527.09
2023-03-25T04:03:08.866Z,99523.38
2023-03-25T04:05:40.896Z,99524.16
2023-03-25T04:08:29.518Z,99522.53
2023-03-25T04:11:29.096Z,99524.25
2023-03-25T04:13:59.249Z,99523.63
2023-03-25T04:16:26.207Z,99526.66
2023-03-25T04:18:55.769Z,99526.91
2023-03-25T04:21:25.420Z,99532.59
2023-03-25T04:23:54.494Z,99536.16
2023-03-25T04:26:21.676Z,99532.97
2023-03-25T04:28:51.701Z,99536.19
2023-03-25T04:31:21.753Z,99532.25
2023-03-25T04:33:51.906Z,99547.16
2023-03-25T04:36:20.129Z,99548.19
2023-03-25T04:38:47.038Z,99538.00
2023-03-25T04:41:15.627Z,99548.34
2023-03-25T04:43:45.079Z,99546.34
2023-03-25T04:46:17.936Z,99539.28
2023-03-25T04:48:45.622Z,99540.81
2023-03-25T04:51:13.629Z,99540.81
2023-03-25T04:53:42.620Z,99544.56
2023-03-25T04:56:16.215Z,99532.69
2023-03-25T04:58:46.613Z,99532.84
2023-03-25T05:01:30.896Z,99527.03
2023-03-25T05:04:06.904Z,99529.50
2023-03-25T05:06:38.321Z,99528.78
2023-03-25T05:09:13.959Z,99530.66
2023-03-25T05:11:41.873Z,99536.06
2023-03-25T05:14:10.910Z,99534.94
2023-03-25T05:16:40.866Z,99533.72
2023-03-25T05:19:08.214Z,99535.03
2023-03-25T05:21:43.877Z,99536.56
2023-03-25T05:24:15.204Z,99538.38
2023-03-25T05:26:42.991Z,99547.47
2023-03-25T05:29:14.076Z,99535.03
2023-03-25T05:31:46.152Z,99546.31
2023-03-25T05:34:14.661Z,99543.94
2023-03-25T05:36:41.791Z,99546.09
2023-03-25T05:39:11.072Z,99545.34
2023-03-25T05:41:45.703Z,99551.16
2023-03-25T05:44:18.799Z,99539.28
2023-03-25T05:46:45.608Z,99545.47
2023-03-25T05:49:12.502Z,99554.38
2023-03-25T05:51:41.988Z,99556.63
2023-03-25T05:54:12.267Z,99558.16
2023-03-25T05:56:40.239Z,99554.31
2023-03-25T05:59:08.345Z,99563.66
2023-03-25T06:01:37.705Z,99557.06
2023-03-25T06:04:05.290Z,99558.81
2023-03-25T06:06:34.237Z,99559.91
2023-03-25T06:09:02.559Z,99566.34
2023-03-25T06:11:37.777Z,99567.22
2023-03-25T06:14:05.906Z,99565.44
2023-03-25T06:16:33.771Z,99561.69
2023-03-25T06:19:01.132Z,99572.91
2023-03-25T06:21:32.599Z,99566.19
2023-03-25T06:24:02.286Z,99561.44
2023-03-25T06:26:32.641Z,99571.22
2023-03-25T06:29:02.573Z,99575.91
2023-03-25T06:31:34.251Z,99577.06
2023-03-25T06:34:01.610Z,99580.66
2023-03-25T06:36:31.491Z,99573.84
2023-03-25T06:38:58.483Z,99576.97
2023-03-25T06:41:28.118Z,99575.56
2023-03-25T06:43:57.920Z,99575.19
2023-03-25T06:46:24.830Z,99576.53
2023-03-25T06:48:51.863Z,99577.84
2023-03-25T06:51:18.733Z,99576.28
2023-03-25T06:53:47.694Z,99570.22
2023-03-25T06:56:14.715Z,99573.78
2023-03-25T06:58:41.989Z,99570.47
2023-03-25T07:01:09.002Z,99569.59
2023-03-25T07:03:37.264Z,99567.47
2023-03-25T07:06:06.296Z,99572.19
2023-03-25T07:08:34.084Z,99568.44
2023-03-25T07:11:09.067Z,99576.22
2023-03-25T07:13:37.999Z,99573.03
2023-03-25T07:16:08.651Z,99574.03
2023-03-25T07:18:40.361Z,99570.59
2023-03-25T07:21:09.802Z,99581.19
2023-03-25T07:23:36.741Z,99579.44
2023-03-25T07:26:13.316Z,99584.72
2023-03-25T07:28:40.776Z,99570.84
2023-03-25T07:31:17.902Z,99576.75
2023-03-25T07:33:44.917Z,99586.78
2023-03-25T07:36:14.547Z,99583.66
2023-03-25T07:38:41.483Z,99575.41
2023-03-25T07:41:14.265Z,99575.47
2023-03-25T07:43:43.651Z,99591.50
2023-03-25T07:46:10.515Z,99580.53
2023-03-25T07:48:37.428Z,99581.97
2023-03-25T07:51:04.559Z,99595.38
2023-03-25T07:53:34.530Z,99593.81
2023-03-25T07:56:03.469Z,99595.78
2023-03-25T07:58:35.261Z,99586.75
2023-03-25T08:01:02.296Z,99592.91
2023-03-25T08:03:31.986Z,99585.16
2023-03-25T08:06:02.501Z,99603.28
2023-03-25T08:08:30.133Z,99595.53
2023-03-25T08:11:01.669Z,99590.97
2023-03-25T08:13:31.090Z,99606.91
2023-03-25T08:15:58.369Z,99602.13
2023-03-25T08:18:25.921Z,99610.06
2023-03-25T08:20:53.669Z,99610.38
2023-03-25T08:23:23.409Z,99615.44
2023-03-25T08:25:51.719Z,99615.56
2023-03-25T08:28:24.208Z,99623.13
2023-03-25T08:30:55.553Z,99603.88
2023-03-25T08:33:33.977Z,99609.53
2023-03-25T08:36:03.627Z,99605.53
2023-03-25T08:38:35.283Z,99617.56
2023-03-25T08:41:05.272Z,99610.06
2023-03-25T08:43:37.006Z,99614.38
2023-03-25T08:46:04.100Z,99614.03
2023-03-25T08:48:33.507Z,99610.69
2023-03-25T08:51:03.417Z,99600.63
2023-03-25T08:53:33.129Z,99607.22
2023-03-25T08:56:00.201Z,99602.47
2023-03-25T08:58:27.306Z,99595.34
2023-03-25T09:00:56.233Z,99594.81
2023-03-25T09:03:26.941Z,99594.38
2023-03-25T09:05:56.428Z,99590.34
2023-03-25T09:08:26.053Z,99596.13
2023-03-25T09:11:00.454Z,99593.34
2023-03-25T09:13:27.302Z,99602.91
2023-03-25T09:15:54.578Z,99585.41
2023-03-25T09:18:21.700Z,99585.19
2023-03-25T09:20:48.602Z,99584.00
2023-03-25T09:23:16.293Z,99580.63
2023-03-25T09:25:43.197Z,99578.81
2023-03-25T09:28:10.361Z,99585.81
2023-03-25T09:30:39.289Z,99588.56
2023-03-25T09:33:06.830Z,99568.47
2023-03-25T09:35:34.253Z,99579.72
2023-03-25T09:38:01.942Z,99575.72
2023-03-25T09:40:29.037Z,99568.66
2023-03-25T09:43:42.521Z,99562.41
2023-03-25T09:46:11.940Z,99590.06
2023-03-25T09:48:45.335Z,99634.81
2023-03-25T09:51:22.977Z,99682.94
2023-03-25T09:54:16.686Z,99675.97
2023-03-25T09:56:46.139Z,99673.22
2023-03-25T09:59:25.982Z,99665.13
2023-03-25T10:02:28.720Z,99651.28
2023-03-25T10:05:23.051Z,99638.41
2023-03-25T10:08:13.427Z,99637.38
2023-03-25T10:11:04.350Z,99634.06
2023-03-25T10:13:48.813Z,99635.47
2023-03-25T10:16:37.083Z,99638.97
2023-03-25T10:19:18.957Z,99631.50
2023-03-25T10:22:28.814Z,99625.16
2023-03-25T10:25:06.488Z,99622.94
2023-03-25T10:27:33.514Z,99626.03
2023-03-25T10:30:11.970Z,99621.44
2023-03-25T10:32:47.418Z,99623.31
2023-03-25T10:35:26.432Z,99619.94
2023-03-25T10:38:02.048Z,99621.34
2023-03-25T10:40:44.900Z,99605.94
2023-03-25T10:43:31.998Z,99615.50
2023-03-25T10:46:13.235Z,99614.47
2023-03-25T10:48:43.077Z,99615.22
2023-03-25T10:51:13.160Z,99613.84
2023-03-25T10:53:41.942Z,99612.00
2023-03-25T10:56:41.642Z,99608.13
2023-03-25T10:59:56.828Z,99609.34
2023-03-25T11:02:28.131Z,99608.16
2023-03-25T11:05:03.130Z,99617.06
2023-03-25T11:07:42.285Z,99611.25
2023-03-25T11:10:28.405Z,99618.63
2023-03-25T11:13:03.724Z,99619.94
2023-03-25T11:15:37.166Z,99624.72
2023-03-25T11:18:15.382Z,99626.66
2023-03-25T11:21:02.506Z,99621.47
2023-03-25T11:23:42.350Z,99617.44
2023-03-25T11:26:20.871Z,99609.94
2023-03-25T11:29:15.295Z,99605.19
2023-03-25T11:31:46.209Z,99600.44
2023-03-25T11:34:13.066Z,99591.53
2023-03-25T11:36:54.984Z,99591.31
2023-03-25T11:39:40.359Z,99592.25
2023-03-25T11:42:35.874Z,99584.69
2023-03-25T11:45:14.021Z,99572.03
2023-03-25T11:47:42.109Z,99570.56
2023-03-25T11:50:23.910Z,99561.81
2023-03-25T11:52:59.187Z,99568.28
2023-03-25T11:55:51.594Z,99585.06
2023-03-25T11:58:28.557Z,99596.69
2023-03-25T12:01:08.039Z,99605.31
2023-03-25T12:03:39.402Z,99611.19
2023-03-25T12:06:11.363Z,99608.50
2023-03-25T12:08:58.545Z,99605.84
2023-03-25T12:11:36.687Z,99608.03
2023-03-25T12:14:18.058Z,99619.56
2023-03-25T12:17:02.730Z,99628.81
2023-03-25T12:19:59.726Z,99649.41
2023-03-25T12:23:06.355Z,99599.72
2023-03-25T12:26:11.098Z,99602.50
2023-03-25T12:29:02.017Z,99595.72
2023-03-25T12:31:50.804Z,99596.78
2023-03-25T12:35:16.605Z,99588.75
2023-03-25T12:38:27.279Z,99586.09
2023-03-25T12:41:50.059Z,99568.28
2023-03-25T12:45:13.156Z,99561.94
2023-03-25T12:47:43.411Z,99558.47
2023-03-25T12:50:22.962Z,99553.97
2023-03-25T12:53:04.422Z,99548.78
2023-03-25T12:56:14.210Z,99549.88
2023-03-25T12:59:03.327Z,99541.00
2023-03-25T13:02:03.511Z,99540.97
2023-03-25T13:04:36.470Z,99526.34
2023-03-25T13:07:10.468Z,99527.19
2023-03-25T13:10:13.369Z,99526.59
2023-03-25T13:12:54.460Z,99529.31
2023-03-25T13:15:48.309Z,99525.09
2023-03-25T13:18:48.139Z,99533.09
2023-03-25T13:21:30.173Z,99537.72
2023-03-25T13:24:07.189Z,99546.06
2023-03-25T13:26:36.359Z,99551.09
2023-03-25T13:29:06.314Z,99558.25
2023-03-25T13:31:37.405Z,99559.94
2023-03-25T13:34:14.094Z,99563.31
2023-03-25T13:36:57.100Z,99552.03
2023-03-25T13:39:48.015Z,99555.78
2023-03-25T13:42:52.890Z,99553.28
2023-03-25T13:45:23.231Z,99557.03
2023-03-25T13:48:01.946Z,99550.72
2023-03-25T13:50:33.692Z,99549.88
2023-03-25T13:53:15.828Z,99562.88
2023-03-25T13:56:13.280Z,99565.34
2023-03-25T13:59:04.806Z,99556.41
2023-03-25T14:02:09.157Z,99547.84
2023-03-25T14:05:06.891Z,99552.88
2023-03-25T14:08:07.306Z,99546.38
2023-03-25T14:10:58.747Z,99549.69
2023-03-25T14:13:39.422Z,99550.72
2023-03-25T14:16:20.538Z,99550.69
2023-03-25T14:18:53.001Z,99554.00
2023-03-25T14:21:59.393Z,99554.38
2023-03-25T14:24:37.201Z,99559.41
2023-03-25T14:27:44.233Z,99561.56
2023-03-25T14:30:22.473Z,99554.78
2023-03-25T14:32:51.880Z,99555.50
2023-03-25T14:35:34.437Z,99564.53
2023-03-25T14:38:09.893Z,99563.28
2023-03-25T14:40:50.772Z,99553.66
2023-03-25T14:43:48.541Z,99555.28
2023-03-25T14:46:21.718Z,99551.75
2023-03-25T14:49:30.089Z,99554.75
2023-03-25T14:52:00.744Z,99552.66
2023-03-25T14:54:33.597Z,99548.03
2023-03-25T14:57:10.077Z,99540.91
2023-03-25T14:59:43.372Z,99549.06
2023-03-25T15:02:25.236Z,99542.94
2023-03-25T15:05:06.829Z,99550.31
2023-03-25T15:07:45.462Z,99559.69
2023-03-25T15:10:32.106Z,99548.22
2023-03-25T15:13:21.540Z,99560.97
2023-03-25T15:15:50.312Z,99547.53
2023-03-25T15:18:35.667Z,99544.09
2023-03-25T15:21:16.518Z,99548.38
2023-03-25T15:23:47.583Z,99537.69
2023-03-25T15:26:40.892Z,99548.78
2023-03-25T15:29:47.552Z,99541.22
2023-03-25T15:32:23.201Z,99542.22
2023-03-25T15:35:13.900Z,99542.84
2023-03-25T15:38:08.444Z,99547.41
2023-03-25T15:41:19.532Z,99537.72
2023-03-25T15:44:27.725Z,99539.44
2023-03-25T15:47:29.732Z,99543.84
2023-03-25T15:50:24.554Z,99540.28
2023-03-25T15:53:41.734Z,99553.06
2023-03-25T15:56:16.550Z,99547.44
2023-03-25T15:58:55.573Z,99539.47
2023-03-25T16:01:31.795Z,99540.72
2023-03-25T16:04:21.222Z,99539.84
2023-03-25T16:06:53.184Z,99537.53
2023-03-25T16:09:29.481Z,99530.66
2023-03-25T16:12:03.513Z,99533.63
2023-03-25T16:14:33.401Z,99526.09
2023-03-25T16:17:07.278Z,99533.22
2023-03-25T16:19:46.828Z,99544.91
2023-03-25T16:22:34.448Z,99541.16
2023-03-25T16:25:14.535Z,99546.56
2023-03-25T16:27:50.898Z,99527.56
2023-03-25T16:30:39.479Z,99505.59
2023-03-25T16:33:14.525Z,99527.34
2023-03-25T16:35:46.974Z,99531.06
2023-03-25T16:38:22.699Z,99538.75
2023-03-25T16:40:50.651Z,99544.69
2023-03-25T16:43:24.256Z,99535.16
2023-03-25T16:45:53.832Z,99530.09
2023-03-25T16:48:34.923Z,99525.44
2023-03-25T16:51:16.745Z,99529.94
2023-03-25T16:53:44.776Z,99517.03
2023-03-25T16:56:14.745Z,99490.31
2023-03-25T16:59:08.744Z,99496.78
2023-03-25T17:01:43.201Z,99511.63
2023-03-25T17:04:18.805Z,99500.53
2023-03-25T17:06:52.880Z,99503.97
2023-03-25T17:09:34.210Z,99499.81
2023-03-25T17:12:08.073Z,99493.88
2023-03-25T17:14:40.169Z,99496.56
2023-03-25T17:17:41.767Z,99500.38
2023-03-25T17:20:19.639Z,99488.91
2023-03-25T17:23:25.349Z,99494.88
2023-03-25T17:26:09.322Z,99502.22
2023-03-25T17:28:43.747Z,99515.31
2023-03-25T17:31:29.758Z,99516.06
2023-03-25T17:34:21.353Z,99534.63
2023-03-25T17:36:52.969Z,99540.19
2023-03-25T17:39:24.759Z,99578.47
2023-03-25T17:42:01.660Z,99586.84
2023-03-25T17:44:46.629Z,99575.25
2023-03-25T17:47:20.721Z,99579.00
2023-03-25T17:49:52.569Z,99568.09
2023-03-25T17:52:25.247Z,99560.53
2023-03-25T17:54:52.312Z,99559.66
2023-03-25T17:57:22.578Z,99548.31
2023-03-25T17:59:52.278Z,99548.69
2023-03-25T18:02:23.930Z,99539.50
2023-03-25T18:04:51.519Z,99531.50
2023-03-25T18:07:22.518Z,99540.16
2023-03-25T18:09:49.395Z,99538.22
2023-03-25T18:12:16.273Z,99543.94
2023-03-25T18:14:45.960Z,99543.81
2023-03-25T18:17:17.416Z,99537.88
2023-03-25T18:19:44.330Z,99533.75
2023-03-25T18:22:19.607Z,99533.34
2023-03-25T18:24:49.806Z,99544.56
2023-03-25T18:27:21.089Z,99541.34
2023-03-25T18:29:55.328Z,99541.66
2023-03-25T18:32:24.731Z,99531.16
2023-03-25T18:34:52.841Z,99538.25
2023-03-25T18:37:19.693Z,99537.09
2023-03-25T18:39:50.009Z,99546.53
2023-03-25T18:42:18.963Z,99549.56
2023-03-25T18:44:49.673Z,99538.16
2023-03-25T18:47:20.555Z,99534.63
2023-03-25T18:49:50.423Z,99538.38
2023-03-25T18:52:17.270Z,99536.84
2023-03-25T18:54:44.260Z,99539.34
2023-03-25T18:57:15.895Z,99535.56
2023-03-25T18:59:46.278Z,99547.03
2023-03-25T19:02:13.255Z,99550.75
2023-03-25T19:04:54.180Z,99543.41
2023-03-25T19:07:32.991Z,99549.31
2023-03-25T19:09:59.931Z,99545.47
2023-03-25T19:12:26.802Z,99553.47
2023-03-25T19:14:53.740Z,99555.44
2023-03-25T19:17:23.285Z,99552.44
2023-03-25T19:19:52.396Z,99552.03
2023-03-25T19:22:19.780Z,99561.84
2023-03-25T19:24:48.067Z,99565.97
2023-03-25T19:27:14.920Z,99571.38
2023-03-25T19:29:41.973Z,99561.06
2023-03-25T19:32:08.908Z,99568.63
2023-03-25T19:34:47.533Z,99573.84
2023-03-25T19:37:15.844Z,99571.38
2023-03-25T19:39:49.979Z,99575.91
2023-03-25T19:42:16.824Z,99568.16
2023-03-25T19:44:44.603Z,99576.28
2023-03-25T19:47:12.532Z,99567.09
2023-03-25T19:49:40.400Z,99571.22
2023-03-25T19:52:07.882Z,99577.47
2023-03-25T19:54:37.804Z,99571.97
2023-03-25T19:57:09.528Z,99582.34
2023-03-25T19:59:37.078Z,99580.09
2023-03-25T20:02:04.231Z,99586.91
2023-03-25T20:04:31.760Z,99593.41
2023-03-25T20:07:01.129Z,99591.19
2023-03-25T20:09:30.138Z,99594.00
2023-03-25T20:11:57.450Z,99597.16
2023-03-25T20:14:24.306Z,99589.47
2023-03-25T20:16:55.870Z,99590.66
2023-03-25T20:19:22.723Z,99587.59
2023-03-25T20:21:49.571Z,99593.28
2023-03-25T20:24:16.540Z,99590.59
2023-03-25T20:26:43.397Z,99590.22
2023-03-25T20:29:13.270Z,99594.22
2023-03-25T20:31:40.517Z,99600.44
2023-03-25T20:34:12.749Z,99595.22
2023-03-25T20:36:42.233Z,99599.63
2023-03-25T20:39:14.088Z,99607.38
2023-03-25T20:41:43.500Z,99613.16
2023-03-25T20:44:15.415Z,99613.41
2023-03-25T20:46:46.513Z,99607.56
2023-03-25T20:49:15.401Z,99609.53
2023-03-25T20:51:43.365Z,99612.75
2023-03-25T20:54:16.696Z,99615.28
2023-03-25T20:56:51.181Z,99622.56
2023-03-25T20:59:19.639Z,99620.25
2023-03-25T21:01:54.260Z,99620.59
2023-03-25T21:04:22.575Z,99622.75
2023-03-25T21:06:55.040Z,99623.97
2023-03-25T21:09:21.886Z,99632.91
2023-03-25T21:11:51.621Z,99630.78
2023-03-25T21:14:18.847Z,99628.59
2023-03-25T21:16:46.257Z,99635.88
2023-03-25T21:19:15.925Z,99644.00
2023-03-25T21:21:47.470Z,99641.63
2023-03-25T21:24:16.697Z,99640.09
2023-03-25T21:26:46.160Z,99651.19
2023-03-25T21:29:13.004Z,99655.09
2023-03-25T21:31:45.568Z,99655.16
2023-03-25T21:34:15.708Z,99657.19
2023-03-25T21:36:43.329Z,99659.81
2023-03-25T21:39:13.500Z,99660.19
2023-03-25T21:41:40.746Z,99651.53
2023-03-25T21:44:07.827Z,99657.28
2023-03-25T21:46:36.679Z,99659.16
2023-03-25T21:49:06.289Z,99663.44
2023-03-25T21:51:35.923Z,99663.19
2023-03-25T21:54:06.402Z,99663.50
2023-03-25T21:56:34.757Z,99664.16
2023-03-25T21:59:03.500Z,99666.06
2023-03-25T22:01:30.680Z,99662.81
2023-03-25T22:04:02.572Z,99677.72
2023-03-25T22:06:35.562Z,99671.47
2023-03-25T22:09:09.160Z,99676.47
2023-03-25T22:11:39.776Z,99685.13
2023-03-25T22:14:07.988Z,99672.72
2023-03-25T22:16:35.486Z,99681.41
2023-03-25T22:19:05.122Z,99694.75
2023-03-25T22:21:36.910Z,99689.53
2023-03-25T22:24:06.951Z,99684.16
2023-03-25T22:26:35.490Z,99692.22
2023-03-25T22:29:06.107Z,99696.41
2023-03-25T22:31:39.293Z,99687.66
2023-03-25T22:34:11.116Z,99699.78
2023-03-25T22:36:49.331Z,99703.03
2023-03-25T22:39:20.783Z,99696.41
2023-03-25T22:41:47.876Z,99702.84
2023-03-25T22:44:16.996Z,99711.50
2023-03-25T22:46:46.351Z,99706.50
2023-03-25T22:49:14.222Z,99710.03
2023-03-25T22:51:41.620Z,99709.56
2023-03-25T22:54:11.672Z,99717.41
2023-03-25T22:56:38.735Z,99714.59
2023-03-25T22:59:07.384Z,99725.13
2023-03-25T23:01:37.070Z,99729.81
2023-03-25T23:04:04.698Z,99722.63
2023-03-25T23:06:32.988Z,99734.84
2023-03-25T23:08:59.958Z,99726.47
2023-03-25T23:11:29.472Z,99732.16
2023-03-25T23:14:07.507Z,99731.84
2023-03-25T23:16:35.691Z,99735.69
2023-03-25T23:19:05.630Z,99743.25
2023-03-25T23:21:33.727Z,99742.69
2023-03-25T23:24:05.225Z,99748.66
2023-03-25T23:26:38.886Z,99755.66
2023-03-25T23:29:11.928Z,99756.50
2023-03-25T23:31:42.365Z,99759.94
2023-03-25T23:34:13.239Z,99763.19
2023-03-25T23:36:40.771Z,99763.03
2023-03-25T23:39:15.316Z,99768.81
2023-03-25T23:41:42.471Z,99771.81
2023-03-25T23:44:13.200Z,99772.19
2023-03-25T23:46:43.128Z,99772.00
2023-03-25T23:49:11.096Z,99774.31
2023-03-25T23:51:42.244Z,99779.63
2023-03-25T23:54:12.720Z,99781.03
2023-03-25T23:56:49.786Z,99786.81
2023-03-25T23:59:16.790Z,99791.09
